createdAt,value
2018-09-05T00:00:52.384Z,19.00
2018-09-05T00:03:22.395Z,18.90
2018-09-05T00:05:52.441Z,18.90
2018-09-05T00:08:22.427Z,18.90
2018-09-05T00:10:52.533Z,18.90
2018-09-05T00:13:22.559Z,18.80
2018-09-05T00:15:52.523Z,18.70
2018-09-05T00:18:22.492Z,18.70
2018-09-05T00:25:51.381Z,18.70
2018-09-05T00:28:21.437Z,18.50
2018-09-05T00:30:51.427Z,18.50
2018-09-05T00:40:50.457Z,18.40
2018-09-05T00:43:20.499Z,18.40
2018-09-05T00:48:19.922Z,18.20
2018-09-05T00:53:19.377Z,18.10
2018-09-05T01:03:17.649Z,18.00
2018-09-05T01:05:47.699Z,17.90
2018-09-05T01:10:47.178Z,17.80
2018-09-05T01:13:17.147Z,17.70
2018-09-05T01:15:47.199Z,17.60
2018-09-05T01:18:17.189Z,17.60
2018-09-05T01:25:46.849Z,17.40
2018-09-05T01:30:46.324Z,17.30
2018-09-05T01:40:44.798Z,17.20
2018-09-05T01:43:14.799Z,17.20
2018-09-05T01:45:44.791Z,17.20
2018-09-05T01:50:44.675Z,17.10
2018-09-05T01:53:15.044Z,17.10
2018-09-05T01:55:45.100Z,17.10
2018-09-05T02:03:13.961Z,17.10
2018-09-05T02:08:13.349Z,17.00
2018-09-05T02:10:43.301Z,17.00
2018-09-05T02:15:42.763Z,17.20
2018-09-05T02:18:12.861Z,17.10
2018-09-05T02:20:42.859Z,17.10
2018-09-05T02:23:12.863Z,17.00
2018-09-05T02:33:11.137Z,16.90
2018-09-05T02:35:41.132Z,16.90
2018-09-05T02:38:11.190Z,16.80
2018-09-05T02:43:10.645Z,16.80
2018-09-05T02:45:40.951Z,16.70
2018-09-05T03:00:43.343Z,16.70
2018-09-05T03:03:13.307Z,16.50
2018-09-05T03:05:43.289Z,16.50
2018-09-05T03:15:41.548Z,16.60
2018-09-05T03:20:41.550Z,16.60
2018-09-05T03:23:11.631Z,16.70
2018-09-05T03:28:11.077Z,16.70
2018-09-05T03:30:41.095Z,16.60
2018-09-05T03:33:11.095Z,16.50
2018-09-05T03:35:41.067Z,16.50
2018-09-05T03:40:40.472Z,16.50
2018-09-05T03:43:10.409Z,16.50
2018-09-05T03:48:09.922Z,16.40
2018-09-05T03:55:42.810Z,16.20
2018-09-05T03:58:12.753Z,16.30
2018-09-05T04:03:12.167Z,16.20
2018-09-05T04:05:42.713Z,16.10
2018-09-05T04:13:11.736Z,16.30
2018-09-05T04:15:41.720Z,16.30
2018-09-05T04:18:12.197Z,16.30
2018-09-05T04:28:11.479Z,16.10
2018-09-05T04:30:41.429Z,16.20
2018-09-05T04:33:11.487Z,16.20
2018-09-05T04:35:41.463Z,16.10
2018-09-05T04:48:09.195Z,16.10
2018-09-05T04:50:39.267Z,16.10
2018-09-05T05:00:37.547Z,16.20
2018-09-05T05:03:07.607Z,16.10
2018-09-05T05:05:37.666Z,16.10
2018-09-05T05:18:05.468Z,16.20
2018-09-05T05:20:35.621Z,16.20
2018-09-05T05:30:34.496Z,16.50
2018-09-05T05:45:33.487Z,16.80
2018-09-05T05:50:32.975Z,17.00
2018-09-05T05:55:32.595Z,17.00
2018-09-05T06:05:30.907Z,17.30
2018-09-05T06:20:28.547Z,17.60
2018-09-05T06:22:58.563Z,17.70
2018-09-05T06:50:23.099Z,18.50
2018-09-05T06:52:53.123Z,18.50
2018-09-05T07:00:22.093Z,18.60
2018-09-05T07:02:52.185Z,18.80
2018-09-05T07:05:22.263Z,18.80
2018-09-05T07:07:52.332Z,18.90
2018-09-05T07:15:21.947Z,18.90
2018-09-05T07:17:51.961Z,18.90
2018-09-05T07:20:22.672Z,19.00
2018-09-05T07:27:51.548Z,19.10
2018-09-05T07:30:21.543Z,19.10
2018-09-05T07:32:51.573Z,19.20
2018-09-05T07:35:21.577Z,19.30
2018-09-05T07:45:20.157Z,19.60
2018-09-05T07:47:50.127Z,19.60
2018-09-05T07:50:20.152Z,19.80
2018-09-05T07:55:19.613Z,19.90
2018-09-05T08:00:19.145Z,20.10
2018-09-05T08:02:49.193Z,20.10
2018-09-05T08:05:19.136Z,20.20
2018-09-05T08:12:48.046Z,20.50
2018-09-05T08:15:18.066Z,20.40
2018-09-05T08:20:17.590Z,20.60
2018-09-05T08:32:45.292Z,21.20
2018-09-05T08:35:15.603Z,21.30
2018-09-05T08:40:14.832Z,21.40
2018-09-05T08:57:41.494Z,22.30
2018-09-05T09:00:11.544Z,22.40
2018-09-05T09:02:41.518Z,22.40
2018-09-05T09:07:41.056Z,22.40
2018-09-05T09:20:09.102Z,22.80
2018-09-05T09:30:07.904Z,23.10
2018-09-05T09:40:06.291Z,23.30
2018-09-05T09:47:35.171Z,23.50
2018-09-05T09:52:38.935Z,23.70
2018-09-05T09:55:09.278Z,23.60
2018-09-05T10:02:43.595Z,24.00
2018-09-05T10:07:54.047Z,24.10
2018-09-05T10:26:39.853Z,24.30
2018-09-05T10:31:39.647Z,24.60
2018-09-05T10:34:09.649Z,24.80
2018-09-05T10:44:09.803Z,24.90
2018-09-05T10:46:39.813Z,24.90
2018-09-05T10:49:09.821Z,25.10
2018-09-05T10:51:45.236Z,25.20
2018-09-05T10:54:15.147Z,25.30
2018-09-05T11:19:11.453Z,26.70
2018-09-05T11:21:41.694Z,27.00
2018-09-05T11:26:41.259Z,27.60
2018-09-05T11:36:39.798Z,28.40
2018-09-05T11:49:09.837Z,29.40
2018-09-05T11:51:39.834Z,29.60
2018-09-05T11:54:10.403Z,29.80
2018-09-05T11:59:09.841Z,30.10
2018-09-05T12:01:39.828Z,30.30
2018-09-05T12:04:09.876Z,30.50
2018-09-05T12:06:39.953Z,30.60
2018-09-05T12:09:11.554Z,30.90
2018-09-05T12:11:41.709Z,31.10
2018-09-05T12:14:11.661Z,31.20
2018-09-05T12:16:41.675Z,31.40
2018-09-05T12:31:42.269Z,32.10
2018-09-05T12:36:42.686Z,32.50
2018-09-05T12:39:14.001Z,32.80
2018-09-05T12:44:13.758Z,32.50
2018-09-05T12:49:13.177Z,32.80
2018-09-05T12:54:12.602Z,33.20
2018-09-05T12:56:42.616Z,33.80
2018-09-05T12:59:12.566Z,34.20
2018-09-05T13:14:11.794Z,35.20
2018-09-05T13:24:10.283Z,36.20
2018-09-05T13:29:09.988Z,36.20
2018-09-05T13:31:39.996Z,36.40
2018-09-05T13:34:09.993Z,37.10
2018-09-05T13:41:40.381Z,37.20
2018-09-05T13:44:10.343Z,37.20
2018-09-05T13:49:09.852Z,36.60
2018-09-05T13:51:39.846Z,36.60
2018-09-05T14:01:38.057Z,37.30
2018-09-05T14:04:08.027Z,36.70
2018-09-05T14:09:09.710Z,36.50
2018-09-05T14:21:39.093Z,36.80
2018-09-05T14:24:09.150Z,36.70
2018-09-05T14:36:38.552Z,37.40
2018-09-05T14:39:11.020Z,36.20
2018-09-05T14:41:42.209Z,36.00
2018-09-05T14:47:09.481Z,36.40
2018-09-05T14:49:39.188Z,35.70
2018-09-05T14:54:38.574Z,34.80
2018-09-05T14:59:38.157Z,33.60
2018-09-05T15:17:05.872Z,29.10
2018-09-05T15:22:05.504Z,28.50
2018-09-05T15:24:35.587Z,28.30
2018-09-05T15:27:05.801Z,28.10
2018-09-05T15:37:04.111Z,27.40
2018-09-05T15:39:34.141Z,27.20
2018-09-05T15:42:04.223Z,27.00
2018-09-05T15:49:33.205Z,26.90
2018-09-05T15:54:32.654Z,26.70
2018-09-05T16:07:01.488Z,26.40
2018-09-05T16:19:34.009Z,25.90
2018-09-05T16:27:03.030Z,25.80
2018-09-05T16:29:33.078Z,25.90
2018-09-05T16:42:04.316Z,25.60
2018-09-05T16:47:03.824Z,25.30
2018-09-05T16:52:03.245Z,25.00
2018-09-05T16:54:33.342Z,24.90
2018-09-05T16:59:32.773Z,24.60
2018-09-05T17:04:32.320Z,24.60
2018-09-05T17:17:00.604Z,24.40
2018-09-05T17:26:59.132Z,24.20
2018-09-05T17:29:29.160Z,24.10
2018-09-05T17:34:28.758Z,23.90
2018-09-05T17:44:27.546Z,23.80
2018-09-05T17:46:57.556Z,23.70
2018-09-05T17:56:57.082Z,23.30
2018-09-05T18:01:56.612Z,23.00
2018-09-05T18:06:56.012Z,22.80
2018-09-05T18:09:26.060Z,22.70
2018-09-05T18:14:27.325Z,22.50
2018-09-05T18:24:25.906Z,22.10
2018-09-05T18:26:55.917Z,22.10
2018-09-05T18:29:25.863Z,22.10
2018-09-05T18:36:54.777Z,21.70
2018-09-05T18:39:24.731Z,21.70
2018-09-05T18:46:53.768Z,21.60
2018-09-05T18:49:23.757Z,21.50
2018-09-05T18:54:23.348Z,21.30
2018-09-05T18:56:53.368Z,21.40
2018-09-05T19:04:22.316Z,21.20
2018-09-05T19:06:52.293Z,21.20
2018-09-05T19:14:21.398Z,21.20
2018-09-05T19:16:51.418Z,21.20
2018-09-05T19:19:21.410Z,21.20
2018-09-05T19:24:20.956Z,21.10
2018-09-05T19:26:51.053Z,21.10
2018-09-05T19:34:20.122Z,21.00
2018-09-05T19:49:17.629Z,20.90
2018-09-05T19:51:47.677Z,20.90
2018-09-05T19:54:17.791Z,20.90
2018-09-05T19:59:17.474Z,20.80
2018-09-05T20:04:17.599Z,20.90
2018-09-05T20:06:47.591Z,20.80
2018-09-05T20:24:15.315Z,20.50
2018-09-05T20:49:11.518Z,20.30
2018-09-05T20:59:10.325Z,20.20
2018-09-05T21:04:09.832Z,20.20
2018-09-05T21:14:08.590Z,20.10
2018-09-05T21:16:38.661Z,20.10
2018-09-05T21:26:37.157Z,20.00
2018-09-05T21:29:07.329Z,20.00
2018-09-05T21:31:37.351Z,19.90
2018-09-05T21:46:36.397Z,19.60
2018-09-05T21:51:35.782Z,19.60
2018-09-05T21:59:04.844Z,19.50
2018-09-05T22:01:34.865Z,19.30
2018-09-05T22:04:04.993Z,19.30
2018-09-05T22:11:35.772Z,19.50
2018-09-05T22:21:34.022Z,19.30
2018-09-05T22:24:05.646Z,19.30
2018-09-05T22:31:34.564Z,19.30
2018-09-05T22:34:04.671Z,19.20
2018-09-05T22:36:34.655Z,19.20
2018-09-05T22:39:05.620Z,19.10
2018-09-05T22:56:11.040Z,19.00
2018-09-05T22:58:52.169Z,18.90
2018-09-05T23:07:46.243Z,18.90
2018-09-05T23:18:56.695Z,18.60
2018-09-05T23:21:27.491Z,18.60
2018-09-05T23:24:03.638Z,18.50
2018-09-05T23:26:33.678Z,18.60
2018-09-05T23:29:03.709Z,18.60
2018-09-05T23:56:33.401Z,18.60
